Time;durP1;ratioP1;P1;durP2;ratioP2;P2;SDS_P1;SDS_P2;PMS_P1;PMS_P2;Temp;Humidity;BMP_temperature;BMP_pressure;BME280_temperature;BME280_humidity;BME280_pressure;Samples;Min_cycle;Max_cycle;Signal;HPM_P1;HPM_P2
2022/07/04 00:09:12;;;;;;;3.72;2.60;;;;;;;27.07;38.08;100285.66;20195438;28;97569;-76
2022/07/04 00:19:12;;;;;;;2.63;2.20;;;;;;;26.94;38.03;100288.75;20181554;28;98835;-75
2022/07/04 00:29:13;;;;;;;3.17;2.70;;;;;;;26.73;38.32;100286.47;20175301;28;98916;-75
2022/07/04 00:39:14;;;;;;;;;;;;;;;26.52;39.03;100297.47;20182360;28;99724;-74
2022/07/04 00:49:16;;;;;;;5.65;2.85;;;;;;;26.58;38.21;100293.38;20196096;28;100663;-75
2022/07/04 00:59:17;;;;;;;3.75;2.60;;;;;;;26.45;38.71;100297.28;20188045;28;99835;-75
2022/07/04 01:09:17;;;;;;;5.63;3.00;;;;;;;26.33;39.26;100290.53;20185467;28;97872;-75
2022/07/04 01:19:18;;;;;;;4.43;2.88;;;;;;;26.28;39.29;100290.16;20180341;28;99529;-74
2022/07/04 01:29:20;;;;;;;3.83;2.88;;;;;;;26.09;39.15;100289.38;20107772;28;98774;-75
2022/07/04 01:39:20;;;;;;;3.95;2.78;;;;;;;25.85;39.44;100287.31;20178391;28;99727;-75
2022/07/04 01:49:21;;;;;;;8.63;2.90;;;;;;;25.91;39.68;100302.63;20168253;28;98486;-75
2022/07/04 02:01:29;;;;;;;4.30;2.80;;;;;;;25.79;39.46;100298.53;20159305;28;97184;-75
2022/07/04 02:09:42;;;;;;;4.65;2.90;;;;;;;25.80;39.60;100308.97;20166787;28;97496;-74
2022/07/04 02:19:42;;;;;;;3.67;2.93;;;;;;;25.67;39.91;100303.22;20165384;28;97437;-73
2022/07/04 02:29:43;;;;;;;7.43;3.45;;;;;;;25.62;40.18;100301.03;20168968;28;98880;-74
2022/07/04 02:39:43;;;;;;;4.43;3.20;;;;;;;25.55;40.11;100298.16;20176263;28;98875;-74
2022/07/04 02:49:44;;;;;;;3.85;3.00;;;;;;;25.44;40.08;100321.38;20178779;28;99487;-74
2022/07/04 02:59:45;;;;;;;5.22;3.20;;;;;;;25.49;39.89;100321.78;20179721;28;100471;-75
2022/07/04 03:09:45;;;;;;;7.37;3.30;;;;;;;25.55;40.15;100315.88;20173125;28;98570;-75
2022/07/04 03:19:45;;;;;;;4.72;3.40;;;;;;;25.51;40.02;100318.00;20172206;28;98859;-74
2022/07/04 03:29:46;;;;;;;5.07;3.38;;;;;;;25.34;40.39;100324.03;20168663;28;98008;-74
2022/07/04 03:39:47;;;;;;;3.97;3.40;;;;;;;25.40;40.12;100310.22;20169588;28;98121;-73
2022/07/04 03:49:47;;;;;;;5.53;3.67;;;;;;;25.64;40.00;100303.53;20163407;28;97667;-75
2022/07/04 03:59:48;;;;;;;7.78;3.70;;;;;;;25.56;40.03;100299.81;20165372;28;98886;-76
2022/07/04 04:09:49;;;;;;;6.30;4.27;;;;;;;25.65;40.06;100310.50;20184267;28;98916;-74
2022/07/04 04:19:49;;;;;;;5.97;4.27;;;;;;;25.83;40.43;100321.09;20179910;28;97779;-74
2022/07/04 04:29:50;;;;;;;4.60;3.83;;;;;;;25.89;40.51;100324.00;20183328;28;100611;-75
2022/07/04 04:39:50;;;;;;;5.05;3.85;;;;;;;25.94;40.16;100320.03;20179374;28;98420;-75
2022/07/04 04:49:50;;;;;;;7.60;4.03;;;;;;;25.99;39.70;100313.31;20173149;28;101064;-75
2022/07/04 04:59:51;;;;;;;5.13;4.22;;;;;;;26.06;39.66;100305.56;20178041;28;97129;-76
2022/07/04 05:09:58;;;;;;;5.50;3.80;;;;;;;26.21;39.25;100305.91;20172787;28;97731;-76
2022/07/04 05:19:58;;;;;;;4.38;3.88;;;;;;;26.30;39.25;100310.25;20175346;28;100352;-75
2022/07/04 05:29:59;;;;;;;4.78;3.83;;;;;;;26.41;39.07;100318.97;20187595;28;99256;-76
2022/07/04 05:40:00;;;;;;;4.20;3.70;;;;;;;26.53;37.51;100326.50;20191309;28;99502;-76
2022/07/04 05:50:00;;;;;;;3.40;3.10;;;;;;;26.64;37.04;100321.94;20190854;28;98763;-77
2022/07/04 06:00:02;;;;;;;5.03;3.47;;;;;;;26.80;37.04;100323.91;20210708;28;99793;-77
2022/07/04 06:10:04;;;;;;;3.47;3.13;;;;;;;26.91;36.79;100314.81;20197896;28;101215;-76
2022/07/04 06:20:05;;;;;;;7.32;3.63;;;;;;;27.05;35.78;100316.88;20199222;28;100501;-76
2022/07/04 06:30:08;;;;;;;3.58;3.28;;;;;;;27.16;36.06;100313.94;20191247;28;101531;-78
2022/07/04 06:40:08;;;;;;;4.85;2.47;;;;;;;27.27;36.13;100312.81;20210534;28;98549;-79
2022/07/04 06:50:10;;;;;;;3.07;2.50;;;;;;;27.39;35.38;100305.38;20205053;28;97197;-77
2022/07/04 07:00:16;;;;;;;;;;;;;;;27.46;36.56;100314.38;20206163;28;100535;-77
2022/07/04 07:10:16;;;;;;;5.07;2.50;;;;;;;27.55;36.18;100307.28;20219486;28;98073;-78
2022/07/04 07:20:17;;;;;;;8.18;2.03;;;;;;;27.63;35.43;100312.59;20216357;28;97566;-78
2022/07/04 07:30:17;;;;;;;;;;;;;;;27.65;35.21;100309.78;20232186;28;97726;-79
2022/07/04 07:40:18;;;;;;;4.18;2.25;;;;;;;27.67;34.71;100318.41;20231277;28;96957;-79
2022/07/04 07:50:19;;;;;;;3.20;2.20;;;;;;;27.75;35.66;100312.28;20202343;28;97367;-75
2022/07/04 08:00:19;;;;;;;7.47;2.30;;;;;;;27.74;36.51;100311.44;20200982;28;98017;-76
2022/07/04 08:10:19;;;;;;;6.13;2.30;;;;;;;27.67;36.77;100302.44;20193632;28;101949;-76
2022/07/04 08:20:20;;;;;;;4.57;1.83;;;;;;;27.68;36.49;100295.31;20205730;28;98398;-76
2022/07/04 08:30:20;;;;;;;2.50;2.20;;;;;;;27.68;36.44;100303.28;20213677;28;97704;-76
2022/07/04 08:40:25;;;;;;;2.67;1.90;;;;;;;27.67;36.43;100293.66;20209311;28;97942;-76
2022/07/04 08:50:30;;;;;;;2.05;1.85;;;;;;;27.67;36.55;100301.63;20214330;28;97408;-77
2022/07/04 09:00:31;;;;;;;2.92;1.95;;;;;;;27.69;36.90;100302.31;20231013;28;98229;-80
2022/07/04 09:10:32;;;;;;;3.22;2.10;;;;;;;27.70;37.08;100293.34;20243516;28;97573;-79
2022/07/04 09:20:33;;;;;;;1.98;1.50;;;;;;;27.72;36.91;100296.63;20228540;28;98501;-77
2022/07/04 09:30:33;;;;;;;1.63;1.52;;;;;;;27.73;36.94;100291.16;20233805;28;97201;-78
2022/07/04 09:50:58;;;;;;;2.85;1.60;;;;;;;27.77;37.36;100270.38;20215152;28;97912;-77
2022/07/04 10:00:59;;;;;;;4.60;1.60;;;;;;;27.79;37.44;100261.25;20218320;28;97869;-78
2022/07/04 10:11:00;;;;;;;;;;;;;;;27.84;37.15;100273.22;20228718;28;102356;-78
2022/07/04 10:21:01;;;;;;;1.80;1.40;;;;;;;27.86;37.13;100256.06;20228994;28;97778;-79
2022/07/04 10:31:02;;;;;;;2.88;1.50;;;;;;;27.90;36.82;100246.75;20228228;28;99055;-77
2022/07/04 10:41:09;;;;;;;;;;;;;;;27.95;37.01;100227.63;20212478;28;98157;-78
2022/07/04 10:51:09;;;;;;;1.85;1.63;;;;;;;28.06;37.39;100219.34;20212468;28;99043;-78
2022/07/04 11:01:11;;;;;;;2.28;1.60;;;;;;;28.15;37.06;100212.19;20199719;28;97785;-77
2022/07/04 11:11:47;;;;;;;3.92;1.80;;;;;;;28.24;38.24;100195.16;20210274;28;97165;-77
2022/07/04 11:21:49;;;;;;;5.60;2.70;;;;;;;28.39;40.32;100197.97;20221285;28;99327;-79
2022/07/04 11:31:51;;;;;;;9.45;2.75;;;;;;;28.53;40.19;100177.78;20179902;28;99218;-78
2022/07/04 11:52:12;;;;;;;4.60;2.10;;;;;;;28.73;39.87;100150.72;20237598;28;97961;-79
2022/07/04 12:02:15;;;;;;;8.60;2.20;;;;;;;28.80;40.35;100153.53;20221528;28;96972;-79
2022/07/04 12:12:17;;;;;;;7.53;1.90;;;;;;;28.88;39.78;100145.47;20219202;28;98136;-77
2022/07/04 12:22:38;;;;;;;4.88;1.70;;;;;;;28.95;39.20;100140.28;20220638;28;97693;-78
2022/07/04 12:32:47;;;;;;;3.17;1.75;;;;;;;29.05;38.28;100133.72;20198156;28;98547;-78
2022/07/04 12:42:48;;;;;;;2.07;1.60;;;;;;;29.15;38.29;100144.16;20217971;28;97626;-79
2022/07/04 12:52:51;;;;;;;8.13;1.50;;;;;;;29.26;38.66;100136.72;20197779;28;100054;-77
2022/07/04 13:02:51;;;;;;;2.58;1.67;;;;;;;29.38;39.21;100138.00;20196895;28;101089;-78
2022/07/04 13:12:54;;;;;;;4.72;1.80;;;;;;;29.41;39.31;100129.63;20209243;28;100117;-81
2022/07/04 13:22:54;;;;;;;4.93;1.63;;;;;;;29.49;39.13;100126.06;20224887;28;101622;-79
2022/07/04 13:32:55;;;;;;;2.33;1.40;;;;;;;29.55;38.96;100112.84;20221270;28;98954;-79
2022/07/04 13:42:59;;;;;;;2.17;1.40;;;;;;;29.59;38.63;100120.47;20219704;28;98367;-79
2022/07/04 13:52:59;;;;;;;3.13;1.60;;;;;;;29.63;38.61;100111.94;20219175;28;99755;-79
2022/07/04 14:03:00;;;;;;;5.00;1.50;;;;;;;29.69;38.82;100099.72;20227966;28;97763;-82
2022/07/04 14:13:01;;;;;;;2.53;1.70;;;;;;;29.73;39.63;100089.50;20216323;28;100299;-80
2022/07/04 14:23:02;;;;;;;3.78;1.42;;;;;;;29.78;39.86;100079.09;20192392;28;97722;-79
2022/07/04 14:33:03;;;;;;;2.60;1.58;;;;;;;29.78;40.70;100082.56;20195960;28;98438;-78
2022/07/04 14:43:03;;;;;;;1.92;1.30;;;;;;;29.81;40.13;100081.38;20205465;28;98379;-78
2022/07/04 14:53:04;;;;;;;3.40;1.63;;;;;;;29.83;40.15;100074.03;20192991;28;101256;-81
2022/07/04 15:03:05;;;;;;;1.70;1.42;;;;;;;29.88;39.59;100068.97;20196313;28;104658;-81
2022/07/04 15:13:08;;;;;;;3.90;1.70;;;;;;;29.93;39.83;100057.75;20198281;28;98851;-80
2022/07/04 15:33:30;;;;;;;1.53;1.17;;;;;;;29.80;39.60;100047.72;20194602;28;98230;-79
2022/07/04 15:43:31;;;;;;;3.42;1.35;;;;;;;29.73;39.66;100036.94;20190674;28;97222;-78
2022/07/04 15:53:31;;;;;;;1.52;1.40;;;;;;;29.69;39.36;100049.00;20214629;28;97833;-79
2022/07/04 16:03:31;;;;;;;2.38;1.48;;;;;;;29.64;39.35;100056.75;20202753;28;98896;-78
2022/07/04 16:13:32;;;;;;;2.00;1.30;;;;;;;29.62;39.51;100069.44;20210428;28;97643;-78
2022/07/04 16:23:32;;;;;;;1.30;1.17;;;;;;;29.63;39.42;100076.44;20210543;28;96889;-78
2022/07/04 16:33:33;;;;;;;1.23;1.08;;;;;;;29.67;39.72;100075.84;20208601;28;97096;-78
2022/07/04 16:43:33;;;;;;;2.45;1.40;;;;;;;29.71;39.51;100085.16;20206761;28;97209;-79
2022/07/04 16:53:34;;;;;;;2.70;0.98;;;;;;;29.72;39.53;100085.97;20202741;28;98386;-79
2022/07/04 17:03:35;;;;;;;1.95;1.40;;;;;;;29.71;38.95;100079.84;20192406;28;100798;-79
2022/07/04 17:13:41;;;;;;;6.28;1.60;;;;;;;29.70;38.50;100080.84;20188806;28;99781;-80
2022/07/04 17:23:42;;;;;;;4.55;1.63;;;;;;;29.69;39.19;100079.19;20209947;28;98099;-76
2022/07/04 17:33:42;;;;;;;5.30;1.83;;;;;;;29.68;39.60;100074.84;20239836;28;97267;-79
2022/07/04 17:43:43;;;;;;;9.23;2.57;;;;;;;29.82;37.63;100061.69;20201273;28;101937;-77
2022/07/04 17:53:43;;;;;;;5.10;2.70;;;;;;;29.90;36.11;100058.13;20217155;28;100296;-74
2022/07/04 18:03:44;;;;;;;9.37;2.80;;;;;;;29.95;36.27;100061.09;20204245;28;97977;-77
2022/07/04 18:13:45;;;;;;;6.25;2.83;;;;;;;29.98;36.15;100063.38;20222359;28;100749;-81
2022/07/04 18:23:45;;;;;;;5.20;3.33;;;;;;;29.92;35.55;100078.31;20246438;28;100866;-80
2022/07/04 18:33:46;;;;;;;7.32;4.07;;;;;;;29.88;35.38;100076.97;20233316;28;97436;-80
2022/07/04 18:43:49;;;;;;;8.18;3.55;;;;;;;29.80;36.00;100091.25;20230959;28;97270;-79
2022/07/04 18:53:49;;;;;;;7.68;4.43;;;;;;;29.78;35.20;100105.78;20221441;28;101175;-80
2022/07/04 19:03:50;;;;;;;9.05;3.80;;;;;;;29.64;36.29;100100.25;20187183;28;97924;-75
2022/07/04 19:13:50;;;;;;;8.40;4.05;;;;;;;29.63;35.51;100117.25;20205618;28;99018;-75
2022/07/04 19:23:51;;;;;;;9.32;4.13;;;;;;;29.60;35.98;100124.81;20220955;28;103086;-74
2022/07/04 19:33:51;;;;;;;9.10;4.22;;;;;;;29.55;35.35;100142.19;20212687;28;99056;-74
2022/07/04 19:43:52;;;;;;;9.35;4.18;;;;;;;29.51;34.75;100154.22;20178052;28;101628;-74
2022/07/04 19:53:54;;;;;;;4.18;3.58;;;;;;;29.41;35.05;100142.13;20194448;28;98763;-73
2022/07/04 20:03:55;;;;;;;10.35;5.32;;;;;;;29.32;35.53;100155.56;20198427;28;98027;-75
2022/07/04 20:13:55;;;;;;;11.63;8.02;;;;;;;29.31;35.71;100158.38;20184787;28;99640;-75
2022/07/04 20:23:56;;;;;;;8.75;3.78;;;;;;;29.33;36.36;100137.69;20176903;28;99276;-73
2022/07/04 20:33:56;;;;;;;4.50;3.40;;;;;;;29.35;36.69;100115.19;20190704;28;102660;-75
2022/07/04 20:43:57;;;;;;;5.00;3.45;;;;;;;29.18;36.87;100114.44;20197545;28;98751;-74
2022/07/04 20:53:57;;;;;;;6.85;2.80;;;;;;;29.26;37.00;100113.56;20200712;28;98664;-76
2022/07/04 21:03:58;;;;;;;13.63;8.43;;;;;;;29.12;37.13;100119.69;20189981;28;101314;-74
2022/07/04 21:13:59;;;;;;;6.90;3.22;;;;;;;29.01;37.35;100137.72;20194511;28;100088;-74
2022/07/04 21:23:59;;;;;;;7.50;4.13;;;;;;;29.04;37.57;100149.88;20187266;28;99328;-75
2022/07/04 21:34:00;;;;;;;3.78;2.90;;;;;;;28.94;37.64;100147.44;20200130;28;99114;-75
2022/07/04 21:44:01;;;;;;;5.95;2.17;;;;;;;28.81;37.55;100149.84;20185341;28;100536;-76
2022/07/04 21:54:02;;;;;;;5.68;2.20;;;;;;;28.67;37.99;100159.41;20177483;28;101877;-74
2022/07/04 22:04:03;;;;;;;5.22;2.38;;;;;;;28.65;37.90;100169.38;20169463;28;102585;-75
2022/07/04 22:14:03;;;;;;;4.50;2.00;;;;;;;28.61;38.29;100182.22;20182270;28;97497;-74
2022/07/04 22:24:04;;;;;;;5.87;2.27;;;;;;;28.55;38.62;100205.06;20184067;28;97723;-74
2022/07/04 22:34:05;;;;;;;8.82;2.00;;;;;;;28.57;38.55;100226.19;20197091;28;99729;-74
2022/07/04 22:44:05;;;;;;;8.55;2.30;;;;;;;28.58;38.28;100228.69;20198222;28;98247;-76
2022/07/04 23:04:25;;;;;;;6.50;3.00;;;;;;;28.70;38.03;100210.53;20200274;28;98701;-75
2022/07/04 23:14:25;;;;;;;6.00;1.83;;;;;;;28.51;37.58;100214.41;20194641;28;99809;-75
2022/07/04 23:24:26;;;;;;;9.05;2.10;;;;;;;28.48;37.29;100208.56;20212680;28;102720;-76
2022/07/04 23:34:27;;;;;;;6.28;1.70;;;;;;;28.15;37.91;100206.00;20185880;28;100218;-74
2022/07/04 23:44:27;;;;;;;7.43;2.10;;;;;;;27.87;39.84;100198.34;20202602;28;98043;-74
2022/07/04 23:54:28;;;;;;;5.43;2.03;;;;;;;27.88;41.48;100198.22;20185928;28;98857;-77
